Time;durP1;ratioP1;P1;durP2;ratioP2;P2;SDS_P1;SDS_P2;PMS_P1;PMS_P2;Temp;Humidity;BMP_temperature;BMP_pressure;BME280_temperature;BME280_humidity;BME280_pressure;Samples;Min_cycle;Max_cycle;Signal;HPM_P1;HPM_P2
2023/01/20 00:01:36;;;;;;;;;;;;;;;3.54;90.75;100052.31;4969135;28;20126;-67
2023/01/20 00:04:01;;;;;;;2.97;2.63;;;;;;;3.59;90.89;100060.13;4968507;28;20314;-67
2023/01/20 00:06:28;;;;;;;3.53;1.85;;;;;;;3.51;91.34;100059.06;4969736;28;20039;-67
2023/01/20 00:08:56;;;;;;;4.78;2.05;;;;;;;3.53;90.68;100054.19;4968747;28;20413;-67
2023/01/20 00:11:22;;;;;;;2.20;1.77;;;;;;;3.54;90.86;100066.41;4952233;28;20078;-67
2023/01/20 00:13:51;;;;;;;5.82;2.47;;;;;;;3.60;90.91;100065.09;4973400;28;20053;-67
2023/01/20 00:16:17;;;;;;;2.63;2.20;;;;;;;3.54;90.89;100063.72;4988359;28;20079;-67
2023/01/20 00:18:42;;;;;;;7.22;2.33;;;;;;;3.44;91.73;100068.66;4988991;28;20461;-67
2023/01/20 00:21:11;;;;;;;4.68;2.75;;;;;;;3.48;91.15;100070.34;4963121;28;21034;-67
2023/01/20 00:23:37;;;;;;;2.38;1.83;;;;;;;3.39;92.48;100072.28;4976872;28;20547;-67
2023/01/20 00:26:08;;;;;;;4.57;2.40;;;;;;;3.40;92.08;100084.50;4961048;28;20115;-67
2023/01/20 00:28:34;;;;;;;4.38;2.63;;;;;;;3.51;92.00;100084.88;4967981;28;20542;-67
2023/01/20 00:31:30;;;;;;;8.85;2.58;;;;;;;3.52;92.16;100091.78;4966288;28;20240;-67
2023/01/20 00:33:58;;;;;;;2.25;1.90;;;;;;;3.41;92.41;100094.03;4979884;28;20525;-67
2023/01/20 00:36:25;;;;;;;4.85;2.75;;;;;;;3.46;91.19;100088.53;5010822;28;20459;-67
2023/01/20 00:38:50;;;;;;;2.97;2.50;;;;;;;3.39;91.52;100098.88;5010334;28;20061;-67
2023/01/20 00:41:16;;;;;;;2.63;1.90;;;;;;;3.50;92.79;100097.41;5005596;28;20061;-67
2023/01/20 00:43:42;;;;;;;8.02;3.28;;;;;;;3.49;91.58;100105.72;5010544;28;20502;-67
2023/01/20 00:46:08;;;;;;;4.07;2.80;;;;;;;3.33;93.14;100105.47;5022843;28;20038;-67
2023/01/20 00:48:34;;;;;;;5.38;3.08;;;;;;;3.45;92.01;100105.59;5009047;28;20030;-67
2023/01/20 00:51:00;;;;;;;4.60;3.03;;;;;;;3.28;92.88;100112.88;5008125;28;20040;-67
2023/01/20 00:53:26;;;;;;;4.68;2.65;;;;;;;3.41;93.51;100117.19;5007494;28;20083;-67
2023/01/20 00:55:52;;;;;;;10.60;2.85;;;;;;;3.42;92.40;100119.53;5005809;28;20041;-67
2023/01/20 00:58:17;;;;;;;6.28;4.03;;;;;;;3.46;93.08;100120.47;5026295;28;20026;-67
2023/01/20 01:00:45;;;;;;;8.55;3.13;;;;;;;3.45;91.88;100118.88;5024908;28;20463;-67
2023/01/20 01:03:11;;;;;;;8.38;3.67;;;;;;;3.37;92.67;100127.69;5009046;28;20030;-67
2023/01/20 01:05:36;;;;;;;7.97;3.88;;;;;;;3.32;92.57;100129.75;5003646;28;20037;-67
2023/01/20 01:08:02;;;;;;;6.97;4.45;;;;;;;3.17;94.06;100143.56;5010450;28;20064;-67
2023/01/20 01:10:28;;;;;;;9.30;4.63;;;;;;;3.33;93.45;100134.75;5008995;28;20030;-67
2023/01/20 01:12:53;;;;;;;13.45;5.97;;;;;;;3.34;92.74;100144.31;5005941;28;20524;-67
2023/01/20 01:15:18;;;;;;;10.30;4.97;;;;;;;3.31;93.19;100144.91;5007509;28;20033;-67
2023/01/20 01:17:44;;;;;;;8.85;4.25;;;;;;;3.30;92.97;100155.88;5009933;28;20030;-67
2023/01/20 01:20:11;;;;;;;9.27;4.43;;;;;;;3.35;93.46;100156.50;5009146;28;20121;-67
2023/01/20 01:22:36;;;;;;;8.85;5.07;;;;;;;3.40;92.68;100159.00;5005985;28;20057;-67
2023/01/20 01:25:02;;;;;;;8.63;4.90;;;;;;;3.27;92.86;100165.28;5010241;28;20438;-67
2023/01/20 01:27:28;;;;;;;14.23;4.25;;;;;;;3.28;92.54;100161.53;5012767;28;20116;-67
2023/01/20 01:29:54;;;;;;;7.43;4.50;;;;;;;3.29;93.01;100170.31;5008581;28;20040;-67
2023/01/20 01:32:20;;;;;;;10.52;6.15;;;;;;;3.38;93.65;100165.72;5012569;28;20512;-67
2023/01/20 01:34:46;;;;;;;18.88;5.03;;;;;;;3.29;93.36;100171.06;5014055;28;20440;-67
2023/01/20 01:37:11;;;;;;;14.57;6.35;;;;;;;3.31;92.81;100174.19;5013849;28;20046;-67
2023/01/20 01:39:36;;;;;;;13.45;5.28;;;;;;;3.36;93.10;100173.25;5010701;28;20056;-67
2023/01/20 01:42:02;;;;;;;12.68;4.75;;;;;;;3.41;92.64;100181.81;5028565;28;20048;-67
2023/01/20 01:44:27;;;;;;;12.60;5.05;;;;;;;3.37;93.16;100180.09;5014019;28;20042;-67
2023/01/20 01:46:53;;;;;;;18.23;5.90;;;;;;;3.37;92.64;100172.13;5008978;28;20105;-67
2023/01/20 01:49:24;;;;;;;18.27;5.40;;;;;;;3.26;93.19;100186.88;5010485;28;20060;-67
2023/01/20 01:52:01;;;;;;;19.02;6.40;;;;;;;3.26;94.16;100179.69;5013023;28;20485;-67
2023/01/20 01:54:34;;;;;;;23.52;6.45;;;;;;;3.03;95.49;100181.00;5013538;28;20046;-67
2023/01/20 01:57:00;;;;;;;11.20;6.13;;;;;;;3.12;95.11;100184.41;5005615;28;20038;-67
2023/01/20 01:59:26;;;;;;;15.05;6.22;;;;;;;3.14;95.64;100186.75;5011859;28;20405;-67
2023/01/20 02:01:52;;;;;;;12.00;5.38;;;;;;;3.24;94.68;100187.19;5011698;28;20128;-67
2023/01/20 02:04:22;;;;;;;13.60;6.90;;;;;;;3.37;94.48;100188.88;5008694;28;20129;-67
2023/01/20 02:06:51;;;;;;;12.35;6.03;;;;;;;3.42;93.76;100199.38;5009062;28;20506;-67
2023/01/20 02:09:17;;;;;;;10.82;5.60;;;;;;;3.30;94.04;100198.44;5013510;28;20197;-67
2023/01/20 02:11:52;;;;;;;13.45;5.72;;;;;;;3.37;94.51;100206.72;5006694;28;20037;-67
2023/01/20 02:14:23;;;;;;;19.23;8.43;;;;;;;3.28;94.84;100217.41;5005853;28;20030;-67
2023/01/20 02:17:11;;;;;;;10.73;5.13;;;;;;;3.34;94.39;100212.69;5013224;28;20100;-67
2023/01/20 02:19:51;;;;;;;18.17;7.35;;;;;;;3.40;93.79;100214.88;5013196;28;20030;-67
2023/01/20 02:22:32;;;;;;;14.00;7.30;;;;;;;3.41;93.74;100207.66;5006640;28;20042;-67
2023/01/20 02:25:35;;;;;;;9.38;5.60;;;;;;;3.45;93.25;100217.34;5011618;28;20042;-67
2023/01/20 02:28:29;;;;;;;22.75;7.93;;;;;;;3.49;93.88;100233.44;5013688;28;20046;-67
2023/01/20 02:31:19;;;;;;;9.55;5.40;;;;;;;3.23;94.92;100232.75;5002236;28;20038;-67
2023/01/20 02:34:07;;;;;;;12.30;7.07;;;;;;;3.44;95.12;100229.09;5012257;28;20433;-67
2023/01/20 02:37:09;;;;;;;14.65;5.57;;;;;;;3.37;94.68;100241.31;5013294;28;20510;-67
2023/01/20 02:39:52;;;;;;;19.83;8.93;;;;;;;3.57;94.09;100240.63;5000146;28;20054;-67
2023/01/20 02:42:23;;;;;;;23.15;6.15;;;;;;;3.58;94.13;100247.53;5012251;28;20038;-67
2023/01/20 02:45:21;;;;;;;19.58;6.93;;;;;;;3.47;94.33;100243.63;5011391;28;20048;-67
2023/01/20 02:48:08;;;;;;;13.75;7.07;;;;;;;3.51;94.90;100257.88;4997423;28;20138;-67
2023/01/20 02:50:38;;;;;;;14.73;7.28;;;;;;;3.72;94.68;100250.00;5006159;28;20111;-67
2023/01/20 02:53:05;;;;;;;23.67;8.55;;;;;;;3.63;94.12;100253.47;5011586;28;20045;-67
2023/01/20 02:55:41;;;;;;;13.63;7.15;;;;;;;3.59;94.55;100257.06;5007179;28;20072;-67
2023/01/20 02:58:12;;;;;;;16.00;7.70;;;;;;;3.61;95.03;100258.31;5012673;28;20022;-67
2023/01/20 03:00:50;;;;;;;;;;;;;;;3.65;94.77;100261.91;5012667;28;20120;-67
2023/01/20 03:03:22;;;;;;;15.57;7.70;;;;;;;3.61;94.08;100270.84;5010114;28;19921;-67
2023/01/20 03:05:54;;;;;;;16.52;7.25;;;;;;;3.72;94.56;100263.31;5012780;28;20041;-67
2023/01/20 03:08:23;;;;;;;16.25;8.68;;;;;;;3.73;93.95;100264.84;5010965;28;20026;-67
2023/01/20 03:10:51;;;;;;;26.80;9.48;;;;;;;3.69;93.82;100267.38;5026581;28;20497;-67
2023/01/20 03:13:28;;;;;;;20.77;6.82;;;;;;;3.44;94.42;100266.34;5010467;28;20057;-67
2023/01/20 03:16:01;;;;;;;18.63;7.20;;;;;;;3.36;95.01;100267.16;5012447;28;20053;-68
2023/01/20 03:18:32;;;;;;;17.20;8.65;;;;;;;3.48;95.52;100266.50;5007592;28;20045;-67
2023/01/20 03:20:59;;;;;;;12.18;7.38;;;;;;;3.63;95.47;100260.66;5008165;28;20041;-67
2023/01/20 03:23:33;;;;;;;16.92;8.82;;;;;;;3.63;94.55;100272.09;5010511;28;20041;-68
2023/01/20 03:25:59;;;;;;;18.65;7.80;;;;;;;3.60;94.83;100264.72;5010191;28;20042;-67
2023/01/20 03:28:25;;;;;;;16.92;8.13;;;;;;;3.64;94.93;100275.53;5003865;28;20038;-67
2023/01/20 03:30:54;;;;;;;18.80;7.38;;;;;;;3.52;93.58;100276.19;5009055;28;20064;-67
2023/01/20 03:33:20;;;;;;;21.70;7.72;;;;;;;3.54;94.42;100281.22;5015492;28;20065;-68
2023/01/20 03:36:04;;;;;;;10.73;6.20;;;;;;;3.48;94.36;100285.88;5009230;28;20405;-67
2023/01/20 03:38:30;;;;;;;14.93;6.05;;;;;;;3.48;95.16;100291.22;5019620;28;20030;-68
2023/01/20 03:41:13;;;;;;;16.58;7.20;;;;;;;3.42;94.89;100291.72;4993021;28;20064;-68
2023/01/20 03:44:09;;;;;;;17.80;7.95;;;;;;;3.47;94.73;100292.31;5011888;28;20037;-68
2023/01/20 03:46:44;;;;;;;15.63;7.15;;;;;;;3.42;94.75;100300.47;5025349;28;20076;-68
2023/01/20 03:49:37;;;;;;;12.05;6.43;;;;;;;3.52;94.18;100310.00;5005118;28;20469;-68
2023/01/20 03:52:19;;;;;;;17.50;6.88;;;;;;;3.46;93.99;100301.41;4998354;28;20030;-67
2023/01/20 03:54:53;;;;;;;22.35;6.45;;;;;;;3.53;94.06;100301.72;4999452;28;20037;-68
2023/01/20 03:57:24;;;;;;;14.82;7.10;;;;;;;3.40;93.25;100307.22;5011839;28;20042;-68
2023/01/20 03:59:52;;;;;;;17.15;8.18;;;;;;;3.34;94.01;100306.59;5011164;28;20482;-67
2023/01/20 04:02:19;;;;;;;22.95;7.78;;;;;;;3.28;93.72;100315.03;5009313;28;20042;-67
2023/01/20 04:04:47;;;;;;;9.32;6.05;;;;;;;3.24;94.87;100316.75;5006380;28;20433;-67
2023/01/20 04:07:18;;;;;;;17.33;6.60;;;;;;;3.30;94.13;100313.63;5003481;28;20041;-67
2023/01/20 04:09:50;;;;;;;11.38;6.38;;;;;;;3.32;94.30;100315.97;4997310;28;20026;-68
2023/01/20 04:12:16;;;;;;;12.52;6.65;;;;;;;3.28;93.19;100320.34;4992694;28;20557;-68
2023/01/20 04:14:41;;;;;;;14.55;7.60;;;;;;;3.25;93.69;100329.75;5007303;28;20030;-67
2023/01/20 04:17:08;;;;;;;16.05;7.80;;;;;;;3.27;93.55;100326.78;5011005;28;20114;-68
2023/01/20 04:19:33;;;;;;;14.65;7.20;;;;;;;3.39;93.21;100327.72;5010782;28;20028;-68
2023/01/20 04:22:09;;;;;;;15.68;8.23;;;;;;;3.32;93.13;100327.41;5004126;28;20050;-68
2023/01/20 04:24:58;;;;;;;14.90;8.30;;;;;;;3.41;93.49;100330.84;5006836;28;20114;-68
2023/01/20 04:27:24;;;;;;;20.25;6.75;;;;;;;3.39;93.32;100334.91;5006449;28;20115;-68
2023/01/20 04:29:49;;;;;;;16.25;6.82;;;;;;;3.45;94.06;100342.41;5007718;28;20552;-67
2023/01/20 04:32:15;;;;;;;12.80;6.13;;;;;;;3.29;93.72;100343.97;5006501;28;20042;-67
2023/01/20 04:34:40;;;;;;;13.48;6.53;;;;;;;3.25;94.29;100347.59;5009462;28;20065;-68
2023/01/20 04:37:06;;;;;;;20.08;8.95;;;;;;;3.43;93.56;100352.59;5019812;28;20072;-67
2023/01/20 04:39:31;;;;;;;9.73;5.43;;;;;;;3.18;93.42;100344.63;5000920;28;20057;-67
2023/01/20 04:41:56;;;;;;;16.63;7.47;;;;;;;3.31;93.87;100357.75;5010030;28;20388;-67
2023/01/20 04:44:22;;;;;;;10.68;5.45;;;;;;;3.19;94.83;100354.16;5010040;28;20092;-67
2023/01/20 04:46:47;;;;;;;13.82;7.07;;;;;;;3.22;94.33;100361.50;5002730;28;20087;-68
2023/01/20 04:49:13;;;;;;;14.98;7.80;;;;;;;3.27;94.29;100369.34;5021212;28;20038;-68
2023/01/20 04:51:39;;;;;;;19.08;7.10;;;;;;;3.40;93.67;100371.84;5023971;28;20034;-67
2023/01/20 04:54:05;;;;;;;18.90;7.72;;;;;;;3.32;93.56;100375.31;5010154;28;20033;-68
2023/01/20 04:56:30;;;;;;;15.73;5.60;;;;;;;3.34;94.27;100375.78;5007652;28;20037;-67
2023/01/20 04:58:56;;;;;;;11.25;5.75;;;;;;;3.47;94.20;100384.66;5009601;28;20029;-67
2023/01/20 05:01:24;;;;;;;16.00;5.40;;;;;;;3.39;93.58;100380.94;4996690;28;20069;-67
2023/01/20 05:03:50;;;;;;;17.67;6.40;;;;;;;3.43;93.99;100383.72;4998303;28;20048;-67
2023/01/20 05:06:17;;;;;;;12.15;5.40;;;;;;;3.40;93.45;100382.50;5001580;28;20034;-68
2023/01/20 05:08:43;;;;;;;18.80;7.72;;;;;;;3.60;93.28;100392.50;4996993;28;20105;-68
2023/01/20 05:11:08;;;;;;;8.90;4.78;;;;;;;3.45;92.82;100397.50;5006579;28;20176;-67
2023/01/20 05:13:37;;;;;;;13.52;6.28;;;;;;;3.48;93.48;100402.97;4996561;28;20117;-68
2023/01/20 05:16:08;;;;;;;14.32;5.80;;;;;;;3.50;93.73;100403.44;4998103;28;20042;-67
2023/01/20 05:18:34;;;;;;;16.88;7.47;;;;;;;3.60;92.70;100405.81;4994034;28;21615;-68
2023/01/20 05:21:02;;;;;;;12.93;6.53;;;;;;;3.49;92.25;100417.88;4995918;28;20066;-67
2023/01/20 05:23:28;;;;;;;22.40;6.45;;;;;;;3.59;92.20;100416.78;4989886;28;20039;-68
2023/01/20 05:25:53;;;;;;;13.85;5.88;;;;;;;3.55;91.96;100423.81;4991606;28;20454;-68
2023/01/20 05:28:18;;;;;;;17.90;7.20;;;;;;;3.57;92.72;100424.28;5000917;28;20025;-67
2023/01/20 05:30:45;;;;;;;22.95;5.15;;;;;;;3.53;92.21;100426.78;5007020;28;20390;-67
2023/01/20 05:33:11;;;;;;;14.40;6.53;;;;;;;3.56;92.10;100434.16;5008071;28;20045;-68
2023/01/20 05:35:37;;;;;;;13.98;5.40;;;;;;;3.48;91.96;100437.56;5004743;28;20045;-68
2023/01/20 05:38:03;;;;;;;8.38;4.63;;;;;;;3.35;93.28;100438.50;5009340;28;20116;-67
2023/01/20 05:40:28;;;;;;;15.77;8.23;;;;;;;3.41;93.81;100436.47;5003033;28;20455;-67
2023/01/20 05:42:58;;;;;;;12.50;5.30;;;;;;;3.47;92.63;100446.69;5007956;28;20477;-67
2023/01/20 05:45:23;;;;;;;20.50;6.43;;;;;;;3.45;91.87;100438.22;5000399;28;20041;-67
2023/01/20 05:47:56;;;;;;;7.20;4.47;;;;;;;3.43;92.96;100445.72;5017877;28;20040;-67
2023/01/20 05:50:23;;;;;;;17.10;6.32;;;;;;;3.39;92.36;100444.78;5000117;28;20145;-67
2023/01/20 05:52:48;;;;;;;19.50;7.60;;;;;;;3.43;92.76;100443.06;4998812;28;20036;-67
2023/01/20 05:55:14;;;;;;;9.93;5.43;;;;;;;3.44;92.20;100449.97;4995806;28;20046;-67
2023/01/20 05:57:39;;;;;;;10.27;5.18;;;;;;;3.53;92.24;100450.75;5007204;28;20034;-68
2023/01/20 06:00:05;;;;;;;13.35;5.55;;;;;;;3.73;91.55;100453.88;4998323;28;20045;-67
2023/01/20 06:02:31;;;;;;;15.85;6.25;;;;;;;3.62;91.32;100453.41;4994862;28;20402;-67
2023/01/20 06:05:00;;;;;;;20.00;6.80;;;;;;;3.57;91.53;100457.03;5006292;28;20097;-67
2023/01/20 06:07:27;;;;;;;12.23;5.55;;;;;;;3.58;91.44;100455.91;5009281;28;20049;-67
2023/01/20 06:09:53;;;;;;;13.90;5.30;;;;;;;3.52;91.18;100475.78;5000478;28;20038;-67
2023/01/20 06:12:18;;;;;;;12.80;4.88;;;;;;;3.62;91.69;100478.16;5004326;28;20033;-67
2023/01/20 06:14:44;;;;;;;10.23;4.18;;;;;;;3.65;91.65;100477.53;5004173;28;20052;-67
2023/01/20 06:17:09;;;;;;;8.15;4.82;;;;;;;3.73;91.77;100486.63;5009349;28;20080;-67
2023/01/20 06:19:35;;;;;;;10.23;5.93;;;;;;;3.76;91.52;100490.50;5007893;28;20032;-67
2023/01/20 06:22:00;;;;;;;12.13;4.60;;;;;;;3.74;90.37;100487.38;5008214;28;20053;-67
2023/01/20 06:24:26;;;;;;;14.40;5.82;;;;;;;3.65;91.37;100496.16;5011057;28;20454;-67
2023/01/20 06:26:51;;;;;;;11.35;4.97;;;;;;;3.65;90.89;100496.16;5011975;28;20084;-67
2023/01/20 06:29:17;;;;;;;13.25;5.47;;;;;;;3.68;90.24;100500.06;5008780;28;20030;-67
2023/01/20 06:31:43;;;;;;;11.10;4.97;;;;;;;3.56;91.26;100516.66;5006050;28;20038;-67
2023/01/20 06:34:09;;;;;;;13.93;6.03;;;;;;;3.58;90.89;100511.03;4995660;28;20479;-67
2023/01/20 06:36:34;;;;;;;13.18;5.63;;;;;;;3.54;90.89;100512.75;5006323;28;20030;-67
2023/01/20 06:39:00;;;;;;;11.48;5.47;;;;;;;3.53;91.94;100525.28;4998629;28;20030;-67
2023/01/20 06:41:25;;;;;;;16.20;6.80;;;;;;;3.53;91.95;100533.25;5024662;28;20049;-67
2023/01/20 06:43:51;;;;;;;14.77;4.82;;;;;;;3.62;91.33;100536.72;5002103;28;20029;-67
2023/01/20 06:46:16;;;;;;;15.10;4.70;;;;;;;3.64;91.27;100547.81;5015515;28;20645;-67
2023/01/20 06:48:43;;;;;;;6.13;3.70;;;;;;;3.66;90.94;100550.19;5020144;28;20049;-67
2023/01/20 06:51:12;;;;;;;9.77;4.50;;;;;;;3.50;92.11;100555.16;5000681;28;20083;-67
2023/01/20 06:53:38;;;;;;;14.90;6.35;;;;;;;3.57;91.75;100554.72;5001705;28;20093;-67
2023/01/20 06:56:03;;;;;;;10.45;5.43;;;;;;;3.67;92.04;100557.09;5002366;28;20058;-67
2023/01/20 06:58:31;;;;;;;12.68;4.97;;;;;;;3.59;91.07;100558.63;5005416;28;20133;-67
2023/01/20 07:01:02;;;;;;;12.93;4.63;;;;;;;3.64;91.90;100555.81;5004545;28;20028;-67
2023/01/20 07:03:27;;;;;;;8.27;4.45;;;;;;;3.73;90.65;100568.38;5004477;28;20087;-67
2023/01/20 07:06:23;;;;;;;8.13;4.82;;;;;;;3.70;91.56;100569.75;5007285;28;20434;-67
2023/01/20 07:08:48;;;;;;;9.73;4.60;;;;;;;3.76;91.21;100576.50;4999527;28;20564;-67
2023/01/20 07:11:14;;;;;;;10.40;3.65;;;;;;;3.79;90.35;100583.09;5006192;28;20033;-67
2023/01/20 07:13:39;;;;;;;13.30;5.93;;;;;;;3.90;90.37;100589.69;5000138;28;20422;-67
2023/01/20 07:16:05;;;;;;;15.55;5.05;;;;;;;3.92;89.97;100590.16;5004734;28;20084;-67
2023/01/20 07:18:30;;;;;;;14.60;6.13;;;;;;;3.85;90.91;100595.19;5015515;28;20474;-67
2023/01/20 07:20:56;;;;;;;17.98;5.45;;;;;;;3.87;89.76;100596.41;5005408;28;20036;-67
2023/01/20 07:23:22;;;;;;;16.20;7.32;;;;;;;3.88;90.39;100599.88;5011375;28;20581;-67
2023/01/20 07:25:59;;;;;;;11.27;5.68;;;;;;;3.79;89.54;100615.84;5010552;28;20033;-67
2023/01/20 07:28:25;;;;;;;10.70;4.45;;;;;;;3.74;90.27;100607.97;5005436;28;20049;-69
2023/01/20 07:30:51;;;;;;;9.60;4.80;;;;;;;3.78;89.54;100605.47;5003522;28;20050;-67
2023/01/20 07:33:16;;;;;;;12.43;5.55;;;;;;;3.81;89.55;100618.97;5007821;28;20045;-67
2023/01/20 07:35:42;;;;;;;10.88;5.00;;;;;;;3.80;88.68;100624.59;5007269;28;20049;-67
2023/01/20 07:38:07;;;;;;;15.63;6.05;;;;;;;3.84;89.36;100636.19;5003404;28;20390;-67
2023/01/20 07:40:33;;;;;;;11.35;5.95;;;;;;;3.90;89.72;100635.75;5006577;28;20038;-67
2023/01/20 07:42:58;;;;;;;20.52;6.13;;;;;;;3.91;88.46;100637.31;5001918;28;20415;-68
2023/01/20 07:45:23;;;;;;;18.83;5.68;;;;;;;3.88;89.35;100645.94;5011245;28;20038;-67
2023/01/20 07:47:49;;;;;;;17.33;7.47;;;;;;;3.90;88.75;100649.06;4998562;28;20119;-67
2023/01/20 07:50:15;;;;;;;10.85;5.85;;;;;;;3.90;88.34;100657.06;5017507;28;20029;-68
2023/01/20 07:52:41;;;;;;;11.82;5.47;;;;;;;3.82;88.86;100654.38;5009723;28;20141;-69
2023/01/20 07:55:06;;;;;;;15.98;6.80;;;;;;;3.88;88.94;100661.13;5010222;28;20120;-67
2023/01/20 07:57:32;;;;;;;8.25;4.55;;;;;;;3.89;88.31;100660.81;5006440;28;20034;-67
2023/01/20 07:59:57;;;;;;;18.25;6.22;;;;;;;3.96;87.74;100679.00;5012904;28;20045;-67
2023/01/20 08:02:26;;;;;;;14.32;5.05;;;;;;;3.95;88.57;100667.56;5004739;28;20120;-67
2023/01/20 08:04:51;;;;;;;8.32;5.80;;;;;;;3.96;88.42;100677.13;4994986;28;20089;-67
2023/01/20 08:07:16;;;;;;;11.10;5.32;;;;;;;3.94;87.37;100670.53;4993308;28;20034;-67
2023/01/20 08:09:42;;;;;;;13.10;4.97;;;;;;;3.84;87.74;100676.13;4996400;28;20038;-67
2023/01/20 08:12:08;;;;;;;10.35;4.80;;;;;;;3.80;87.95;100675.97;4993086;28;20037;-67
2023/01/20 08:14:33;;;;;;;7.30;4.03;;;;;;;3.54;89.47;100681.19;4994581;28;20026;-67
2023/01/20 08:16:59;;;;;;;12.95;5.18;;;;;;;3.77;89.67;100679.28;4996159;28;20033;-67
2023/01/20 08:19:28;;;;;;;11.02;3.92;;;;;;;3.77;88.71;100681.94;4995010;28;20034;-67
2023/01/20 08:21:54;;;;;;;12.02;4.95;;;;;;;3.82;89.36;100688.97;5009373;28;20045;-67
2023/01/20 08:24:19;;;;;;;13.02;4.95;;;;;;;3.86;88.62;100698.72;4993157;28;20037;-66
2023/01/20 08:26:45;;;;;;;10.45;4.22;;;;;;;3.91;89.04;100705.78;4989232;28;20030;-67
2023/01/20 08:29:10;;;;;;;10.10;5.35;;;;;;;4.15;88.04;100700.81;4992773;28;20231;-67
2023/01/20 08:31:56;;;;;;;17.45;6.63;;;;;;;4.14;87.41;100707.25;4993772;28;20038;-67
2023/01/20 08:34:22;;;;;;;12.20;5.05;;;;;;;4.12;87.25;100715.53;4937227;28;20051;-67
2023/01/20 08:36:48;;;;;;;8.60;3.92;;;;;;;4.03;87.83;100717.41;4935906;28;20048;-67
2023/01/20 08:39:16;;;;;;;17.95;5.10;;;;;;;4.14;87.63;100721.34;4943712;28;20047;-67
2023/01/20 08:41:42;;;;;;;17.08;4.65;;;;;;;4.07;87.90;100723.69;4933397;28;20061;-67
2023/01/20 08:44:09;;;;;;;11.68;4.15;;;;;;;4.07;87.63;100726.34;4931300;28;20127;-67
2023/01/20 08:46:36;;;;;;;9.45;4.82;;;;;;;4.13;87.40;100733.13;4933999;28;20083;-67
2023/01/20 08:49:06;;;;;;;12.35;5.35;;;;;;;4.25;87.58;100732.53;4936340;28;20617;-67
2023/01/20 08:51:31;;;;;;;11.43;4.53;;;;;;;4.15;87.79;100732.81;4929035;28;20082;-67
2023/01/20 08:53:57;;;;;;;15.80;5.43;;;;;;;4.28;86.79;100745.22;4948536;28;20040;-67
2023/01/20 08:56:23;;;;;;;15.10;5.68;;;;;;;4.27;86.99;100743.66;4941650;29;20126;-67
2023/01/20 08:58:49;;;;;;;15.40;6.45;;;;;;;4.31;86.80;100741.94;4937271;28;20122;-67
2023/01/20 09:01:17;;;;;;;9.23;4.03;;;;;;;4.19;87.06;100737.22;4933085;28;20455;-67
2023/01/20 09:03:43;;;;;;;16.80;4.25;;;;;;;4.25;86.94;100748.50;4934305;28;20063;-67
2023/01/20 09:06:09;;;;;;;17.17;5.07;;;;;;;4.21;87.46;100755.53;4945338;28;20047;-67
2023/01/20 09:08:36;;;;;;;14.55;4.20;;;;;;;4.25;87.36;100753.84;4939542;28;20778;-67
2023/01/20 09:11:10;;;;;;;15.20;6.47;;;;;;;4.40;87.10;100764.06;4960446;28;20833;-67
2023/01/20 09:13:36;;;;;;;18.75;5.75;;;;;;;4.48;86.58;100764.09;5010053;28;20046;-68
2023/01/20 09:16:03;;;;;;;12.95;5.25;;;;;;;4.34;86.11;100759.97;5007401;28;20033;-67
2023/01/20 09:18:32;;;;;;;13.68;5.07;;;;;;;4.33;85.59;100771.72;4999391;28;20038;-67
2023/01/20 09:20:59;;;;;;;6.05;3.15;;;;;;;4.31;86.51;100764.06;5004811;28;20113;-67
2023/01/20 09:23:25;;;;;;;14.30;6.03;;;;;;;4.41;86.12;100766.41;5005504;28;20505;-67
2023/01/20 09:25:50;;;;;;;15.65;6.57;;;;;;;4.45;85.86;100774.59;5008546;28;20450;-68
2023/01/20 09:28:16;;;;;;;13.23;5.30;;;;;;;4.46;84.73;100778.81;5021748;28;20025;-67
2023/01/20 09:30:42;;;;;;;12.10;5.50;;;;;;;4.37;85.17;100784.13;5009210;28;20092;-68
2023/01/20 09:33:11;;;;;;;12.63;4.78;;;;;;;4.31;85.92;100779.25;5008886;28;20061;-67
2023/01/20 09:35:37;;;;;;;9.38;4.72;;;;;;;4.24;85.44;100785.03;5008360;28;20061;-67
2023/01/20 09:43:55;;;;;;;14.85;4.65;;;;;;;4.27;85.43;100788.97;4989384;28;20204;-67
2023/01/20 09:55:44;;;;;;;10.77;4.70;;;;;;;4.49;84.30;100813.63;4994794;28;20058;-67
2023/01/20 09:58:17;;;;;;;10.73;5.15;;;;;;;4.48;84.67;100813.94;4995041;28;20042;-67
2023/01/20 10:00:52;;;;;;;13.80;5.30;;;;;;;4.51;84.32;100821.31;4998528;28;20038;-67
2023/01/20 10:03:35;;;;;;;13.70;4.75;;;;;;;4.47;83.90;100818.47;4993807;28;20033;-67
2023/01/20 10:06:09;;;;;;;14.35;5.78;;;;;;;4.57;83.96;100814.75;5008552;28;20034;-67
2023/01/20 10:09:06;;;;;;;9.45;4.50;;;;;;;4.56;82.58;100818.53;4991744;28;20030;-67
2023/01/20 10:11:37;;;;;;;19.58;4.80;;;;;;;4.44;83.17;100823.66;4962485;28;20395;-67
2023/01/20 10:14:20;;;;;;;10.88;4.55;;;;;;;4.48;83.73;100828.06;5008510;28;20030;-67
2023/01/20 10:16:54;;;;;;;10.07;3.97;;;;;;;4.37;83.97;100836.66;5011565;28;20075;-67
2023/01/20 10:19:27;;;;;;;20.38;5.03;;;;;;;4.50;83.79;100833.88;5010011;28;20026;-67
2023/01/20 10:22:14;;;;;;;11.15;4.25;;;;;;;4.47;83.46;100841.72;5009714;28;20045;-67
2023/01/20 10:24:57;;;;;;;9.82;4.18;;;;;;;4.48;82.72;100848.59;5012016;28;20038;-67
2023/01/20 10:27:27;;;;;;;13.27;5.70;;;;;;;4.54;83.31;100847.38;5006447;28;20037;-67
2023/01/20 10:30:07;;;;;;;12.90;5.75;;;;;;;4.63;82.21;100847.41;5007127;28;20026;-67
2023/01/20 10:32:36;;;;;;;14.40;6.95;;;;;;;4.49;82.17;100848.28;4998448;28;20046;-68
2023/01/20 10:35:23;;;;;;;7.85;3.65;;;;;;;4.52;82.56;100852.22;5008246;28;20038;-67
2023/01/20 10:37:51;;;;;;;14.95;5.68;;;;;;;4.57;82.96;100852.88;5005286;28;20048;-67
2023/01/20 10:40:23;;;;;;;7.88;4.43;;;;;;;4.43;83.60;100851.41;5005219;28;20080;-68
2023/01/20 10:42:58;;;;;;;15.80;5.15;;;;;;;4.22;84.72;100850.41;5001003;28;20065;-67
2023/01/20 10:45:41;;;;;;;10.35;4.68;;;;;;;4.38;84.01;100851.53;4982803;28;20061;-67
2023/01/20 10:48:35;;;;;;;7.70;2.95;;;;;;;4.25;84.03;100858.56;5003971;28;20096;-67
2023/01/20 10:51:09;;;;;;;12.20;4.43;;;;;;;4.25;85.44;100857.75;4997769;28;20125;-68
2023/01/20 10:54:03;;;;;;;9.63;4.90;;;;;;;4.38;83.88;100857.66;5004145;28;20038;-67
2023/01/20 10:56:40;;;;;;;14.85;4.68;;;;;;;4.48;84.33;100872.59;4997409;28;20338;-67
2023/01/20 10:59:14;;;;;;;13.10;4.22;;;;;;;4.27;84.21;100867.03;5008510;28;20536;-67
2023/01/20 11:01:44;;;;;;;7.47;3.45;;;;;;;4.16;85.40;100856.94;5001283;28;20039;-67
2023/01/20 11:04:20;;;;;;;9.60;3.95;;;;;;;4.30;86.23;100865.63;5007718;28;20716;-67
2023/01/20 11:06:50;;;;;;;19.58;5.78;;;;;;;4.62;85.32;100859.94;5006724;28;20057;-68
2023/01/20 11:09:36;;;;;;;6.38;3.45;;;;;;;4.76;83.88;100865.94;5007666;28;20037;-67
2023/01/20 11:12:06;;;;;;;11.25;5.50;;;;;;;4.87;82.94;100863.75;5005269;28;20077;-67
2023/01/20 11:14:32;;;;;;;12.20;4.20;;;;;;;4.95;82.89;100863.78;5009501;28;20049;-67
2023/01/20 11:17:23;;;;;;;9.10;4.15;;;;;;;5.08;83.25;100868.19;4999798;28;20036;-67
2023/01/20 11:19:56;;;;;;;8.55;3.47;;;;;;;5.15;82.17;100862.41;4949653;29;20146;-67
2023/01/20 11:22:33;;;;;;;10.70;3.50;;;;;;;5.09;81.94;100879.66;4930910;29;20067;-67
2023/01/20 11:25:00;;;;;;;7.85;3.83;;;;;;;5.14;81.98;100876.84;4948808;29;20539;-69
2023/01/20 11:27:31;;;;;;;10.93;4.70;;;;;;;5.16;81.23;100870.09;4946271;29;20106;-67
2023/01/20 11:30:05;;;;;;;10.35;3.88;;;;;;;5.15;80.79;100873.84;4947931;28;20165;-67
2023/01/20 11:32:35;;;;;;;9.50;3.90;;;;;;;5.07;80.64;100866.59;5006579;22;20355;-69
2023/01/20 11:35:18;;;;;;;6.82;3.60;;;;;;;4.89;81.19;100874.91;5023644;28;20712;-69
2023/01/20 11:37:43;;;;;;;5.78;3.13;;;;;;;4.91;81.73;100870.06;5031447;28;20044;-69
2023/01/20 11:40:22;;;;;;;13.85;4.47;;;;;;;5.09;81.20;100875.09;5026477;28;20409;-70
2023/01/20 11:42:50;;;;;;;10.73;4.80;;;;;;;5.20;80.85;100880.91;5022082;28;21058;-70
2023/01/20 11:45:23;;;;;;;8.95;3.95;;;;;;;5.21;80.73;100885.94;5024573;28;20025;-70
2023/01/20 11:48:12;;;;;;;7.72;3.05;;;;;;;5.27;80.51;100883.91;5021523;28;20045;-70
2023/01/20 11:50:37;;;;;;;12.57;4.43;;;;;;;5.46;79.49;100895.06;5008296;28;20037;-70
2023/01/20 11:53:16;;;;;;;10.07;4.95;;;;;;;5.52;78.68;100898.38;5028467;28;20508;-70
2023/01/20 11:56:00;;;;;;;10.57;3.35;;;;;;;5.41;79.12;100906.69;5025889;28;20571;-70